U S A F Academy, Colorado
Current Conditions -  °F | °C
As of 11:56 PM on Friday 24 Oct 2014 (Local Time) from KSHM Reporting Station
Clear Clear  
Wind Chill: 54°   Ceiling: Unl
Heat Index: 54°   Visibility: 10mi
Dew Point: 24°   Wind: 2mph
Humidity: 31%   Direction: 50°NE
Pressure: 30.29"   Gusts: NA
Location:  38.8247°N, 104.562°W
Report Text: KSHM 250556Z AUTO 05002KT 10SM CLR 12/M04 A3029 RMK AO2 SLP197 T01241044 10193 20120 51004
Loading
Personal Weather Stations






























Interactive Weather Map
Tropical Storm Tracking
New forecast layout! Learn more

10-Day Weather Forecast

Advertisements
Track Severe Weather on mobile